TimeEDT,TemperatureF,Dew PointF,Humidity,Sea Level PressureIn,VisibilityMPH,Wind Direction,Wind SpeedMPH,Gust SpeedMPH,PrecipitationIn,Events,Conditions,WindDirDegrees,DateUTC
12:15 AM,37.4,21.2,52,30.12,10.0,NW,5.8,-,N/A,,Clear,320,2013-04-02 04:15:00
12:35 AM,37.4,21.2,52,30.12,10.0,NW,4.6,-,N/A,,Clear,310,2013-04-02 04:35:00
12:55 AM,35.6,21.2,56,30.12,10.0,Calm,Calm,-,N/A,,Clear,0,2013-04-02 04:55:00
1:15 AM,35.6,19.4,52,30.12,10.0,Calm,Calm,-,N/A,,Clear,0,2013-04-02 05:15:00
1:35 AM,35.6,19.4,52,30.13,10.0,NW,3.5,-,N/A,,Clear,320,2013-04-02 05:35:00
1:55 AM,35.6,19.4,52,30.12,10.0,NW,3.5,-,N/A,,Clear,310,2013-04-02 05:55:00
2:15 AM,33.8,19.4,56,30.13,10.0,WNW,3.5,-,N/A,,Clear,300,2013-04-02 06:15:00
2:35 AM,33.8,19.4,56,30.14,10.0,WNW,3.5,-,N/A,,Clear,290,2013-04-02 06:35:00
2:55 AM,33.8,19.4,56,30.14,10.0,WNW,4.6,-,N/A,,Clear,300,2013-04-02 06:55:00
3:15 AM,33.8,19.4,56,30.14,10.0,WNW,4.6,-,N/A,,Clear,300,2013-04-02 07:15:00
3:35 AM,33.8,19.4,56,30.14,10.0,WNW,5.8,-,N/A,,Clear,300,2013-04-02 07:35:00
3:55 AM,32.0,19.4,60,30.14,10.0,WNW,4.6,-,N/A,,Clear,290,2013-04-02 07:55:00
4:15 AM,32.0,19.4,60,30.14,10.0,NW,3.5,-,N/A,,Clear,310,2013-04-02 08:15:00
4:35 AM,32.0,19.4,60,30.15,10.0,NW,4.6,-,N/A,,Clear,320,2013-04-02 08:35:00
4:55 AM,32.0,19.4,60,30.15,10.0,NW,4.6,-,N/A,,Clear,320,2013-04-02 08:55:00
5:15 AM,32.0,19.4,60,30.16,10.0,NW,4.6,-,N/A,,Clear,320,2013-04-02 09:15:00
5:35 AM,32.0,19.4,60,30.17,10.0,WNW,3.5,-,N/A,,Clear,300,2013-04-02 09:35:00
5:55 AM,30.2,19.4,64,30.18,10.0,West,3.5,-,N/A,,Clear,280,2013-04-02 09:55:00
6:15 AM,30.2,19.4,64,30.18,10.0,West,4.6,-,N/A,,Clear,280,2013-04-02 10:15:00
6:35 AM,30.2,19.4,64,30.20,10.0,West,4.6,-,N/A,,Clear,260,2013-04-02 10:35:00
6:55 AM,30.2,19.4,64,30.20,10.0,West,3.5,-,N/A,,Clear,260,2013-04-02 10:55:00
7:15 AM,30.2,19.4,64,30.20,10.0,West,3.5,-,N/A,,Clear,270,2013-04-02 11:15:00
7:35 AM,30.2,19.4,64,30.20,10.0,Calm,Calm,-,N/A,,Clear,0,2013-04-02 11:35:00
7:55 AM,30.2,19.4,64,30.22,10.0,Calm,Calm,-,N/A,,Clear,0,2013-04-02 11:55:00
8:15 AM,30.2,19.4,64,30.22,10.0,Calm,Calm,-,N/A,,Clear,0,2013-04-02 12:15:00
8:35 AM,32.0,21.2,64,30.23,10.0,Calm,Calm,-,N/A,,Clear,0,2013-04-02 12:35:00
8:55 AM,32.0,21.2,64,30.24,10.0,West,3.5,-,N/A,,Clear,260,2013-04-02 12:55:00
9:15 AM,32.0,21.2,64,30.25,10.0,WNW,3.5,-,N/A,,Clear,300,2013-04-02 13:15:00
9:35 AM,33.8,23.0,65,30.25,10.0,NW,3.5,-,N/A,,Clear,320,2013-04-02 13:35:00
9:55 AM,35.6,21.2,56,30.26,10.0,NW,3.5,-,N/A,,Clear,310,2013-04-02 13:55:00
10:15 AM,35.6,21.2,56,30.26,10.0,NW,3.5,-,N/A,,Clear,310,2013-04-02 14:15:00
10:35 AM,37.4,15.8,41,30.26,10.0,NNW,6.9,-,N/A,,Clear,330,2013-04-02 14:35:00
11:15 AM,39.2,15.8,39,30.26,10.0,Calm,Calm,-,N/A,,Clear,0,2013-04-02 15:15:00
11:35 AM,39.2,15.8,39,30.26,10.0,NNW,5.8,-,N/A,,Clear,340,2013-04-02 15:35:00
11:55 AM,41.0,15.8,36,30.26,10.0,West,8.1,-,N/A,,Clear,280,2013-04-02 15:55:00
12:15 PM,41.0,14.0,33,30.26,10.0,NW,9.2,-,N/A,,Clear,310,2013-04-02 16:15:00
12:35 PM,42.8,15.8,34,30.25,10.0,West,6.9,-,N/A,,Clear,270,2013-04-02 16:35:00
12:55 PM,42.8,12.2,29,30.25,10.0,West,5.8,-,N/A,,Clear,280,2013-04-02 16:55:00
1:15 PM,42.8,14.0,31,30.25,10.0,WNW,5.8,-,N/A,,Clear,300,2013-04-02 17:15:00
1:35 PM,44.6,14.0,29,30.24,10.0,NNW,5.8,-,N/A,,Clear,330,2013-04-02 17:35:00
1:55 PM,44.6,12.2,27,30.23,10.0,NNW,9.2,-,N/A,,Clear,330,2013-04-02 17:55:00
2:35 PM,44.6,14.0,29,30.21,10.0,West,5.8,-,N/A,,Clear,270,2013-04-02 18:35:00
2:55 PM,46.4,15.8,29,30.20,10.0,North,5.8,-,N/A,,Clear,360,2013-04-02 18:55:00
3:15 PM,46.4,15.8,29,30.20,10.0,WSW,4.6,-,N/A,,Clear,250,2013-04-02 19:15:00
3:35 PM,46.4,15.8,29,30.19,10.0,NW,10.4,-,N/A,,Clear,310,2013-04-02 19:35:00
4:15 PM,48.2,15.8,27,30.18,10.0,NW,12.7,16.1,N/A,,Clear,310,2013-04-02 20:15:00
4:35 PM,48.2,14.0,25,30.18,10.0,West,6.9,10.4,N/A,,Clear,280,2013-04-02 20:35:00
5:15 PM,46.4,15.8,29,30.18,10.0,West,8.1,-,N/A,,Clear,280,2013-04-02 21:15:00
5:35 PM,46.4,14.0,27,30.19,10.0,WSW,8.1,-,N/A,,Clear,240,2013-04-02 21:35:00
5:55 PM,46.4,15.8,29,30.19,10.0,West,9.2,-,N/A,,Clear,270,2013-04-02 21:55:00
6:15 PM,46.4,15.8,29,30.18,10.0,WSW,3.5,-,N/A,,Clear,250,2013-04-02 22:15:00
6:35 PM,46.4,14.0,27,30.18,10.0,WNW,9.2,16.1,N/A,,Clear,290,2013-04-02 22:35:00
6:55 PM,46.4,15.8,29,30.18,10.0,WNW,9.2,16.1,N/A,,Clear,300,2013-04-02 22:55:00
7:15 PM,46.4,14.0,27,30.18,10.0,WNW,5.8,-,N/A,,Clear,300,2013-04-02 23:15:00
7:35 PM,44.6,17.6,34,30.18,10.0,West,5.8,-,N/A,,Clear,260,2013-04-02 23:35:00
7:55 PM,44.6,15.8,31,30.19,10.0,West,4.6,-,N/A,,Clear,270,2013-04-02 23:55:00
8:15 PM,42.8,17.6,36,30.19,10.0,West,5.8,-,N/A,,Clear,270,2013-04-03 00:15:00
8:55 PM,39.2,17.6,42,30.19,10.0,North,4.6,-,N/A,,Clear,350,2013-04-03 00:55:00
9:15 PM,41.0,14.0,33,30.20,10.0,North,3.5,-,N/A,,Clear,350,2013-04-03 01:15:00
9:35 PM,41.0,14.0,33,30.20,10.0,North,3.5,-,N/A,,Clear,360,2013-04-03 01:35:00
9:55 PM,41.0,12.2,31,30.22,10.0,Calm,Calm,-,N/A,,Clear,0,2013-04-03 01:55:00
10:15 PM,39.2,15.8,39,30.22,10.0,Calm,Calm,-,N/A,,Clear,0,2013-04-03 02:15:00
10:35 PM,39.2,15.8,39,30.22,10.0,Calm,Calm,-,N/A,,Clear,0,2013-04-03 02:35:00
10:55 PM,41.0,12.2,31,30.23,10.0,Calm,Calm,-,N/A,,Clear,0,2013-04-03 02:55:00
11:15 PM,39.2,12.2,33,30.23,10.0,Calm,Calm,-,N/A,,Clear,0,2013-04-03 03:15:00
11:35 PM,39.2,14.0,36,30.24,10.0,Calm,Calm,-,N/A,,Clear,0,2013-04-03 03:35:00
11:55 PM,37.4,14.0,38,30.24,10.0,Calm,Calm,-,N/A,,Clear,0,2013-04-03 03:55:00